Terminal Aerodrome Forecast
Issued by NWS Cleveland, OH

Home | Current Version | Previous Version | Graphics & Text | Print | Product List | Glossary On
Versions: 1 2 3 4 5 6 7 8 9 10 11 12 13 14 15 16 17 18 19
000
FTUS41 KCLE 171100
TAFTOL
TAF
KTOL 171133Z 1712/1812 01005KT 5SM BR VCSH BKN007 OVC020
     FM171400 05005KT P6SM BKN015 OVC025
     FM171700 07007KT P6SM SCT015 BKN025
     FM172000 08007KT P6SM SCT030 SCT250
     FM180300 08005KT P6SM SCT050 BKN080=

USA.gov is the U.S. government's official web portal to all federal, state and local government web resources and services.